Du har inga inställningar för hoppväder.nu

Hoppväder.nu

Senast uppdaterat 00:43

UTC-tid

2020-07-06 kl. 22:43


Sol och måne

Solen går upp 4:17 och går ner 23:22 (beräknade cirkatider)
Nästa fullmåne blir om 27 dagar (2020-08-03)

METAR

ENRY (Moss, Rygge)
(23 minuter sedan)
ENRY 062220Z AUTO 30010KT 9999NDV FEW066/// SCT100/// 14/03 Q1001=



ESGT (Trollhättan/Vänersborg)
(23 minuter sedan)
ESGT 062220Z AUTO 29006KT 9999 R15/P2000N R33///// OVC080/// 12/08 Q1001=



ENTO (Sandefjord)
(23 minuter sedan)
ENTO 062220Z AUTO 30008KT 9999 SCT084/// BKN130/// 13/04 Q1001=



ESIB (Såtenäs)
(23 minuter sedan)
ESIB 062220Z AUTO 28010KT 9999 OVC100/// 12/11 Q1000=



ESOK (Karlstad)
(23 minuter sedan)
ESOK 062220Z AUTO 27007KT 9999 R03/P1500N R21///// ////// 11/08 Q0998=



TAF

ENRY (Moss, Rygge)
(343 minuter sedan)
ENRY 061700Z 0618/0718 32008KT 9999 FEW040 BKN080 BECMG 0708/0710 21012KT TEMPO 0711/0718 SHRA SCT025CB BKN030 PROB40 TEMPO 0712/0717 TS BECMG 0714/0716 32010KT=



ESGT (Trollhättan/Vänersborg)
ESGT



ENTO (Sandefjord)
(343 minuter sedan)
ENTO 061700Z 0618/0718 30008KT 9999 FEW040 BKN080 BECMG 0708/0710 22010KT TEMPO 0711/0718 SHRA SCT025CB BKN030 PROB40 TEMPO 0712/0717 TS BECMG 0714/0716 35010KT=



ESIB (Såtenäs)
ESIB



ESOK (Karlstad)
ESOK





Kodnycklar till TAF och METAR






LHP

(Näsinge är område se21e i Delområde 1)

Prognos är inte uppdaterad






Preliminär prognos